MSC Caitlin — 9HA2641 — position and weather

sailwx.info

Track history (hours):
 
Tides and Currents Weather Stations Pressure Air Temp Water Temp Dewpoint Dewpoint Depression Visibility Wind Speed Wind Dir Waves Ship Positions

MSC Caitlin

Last reported at 2017-Nov-05 21:55 UTC. Time now 2017-Nov-21 10:18 UTC.
Position N 32°53' E 034°57'.
Warning: this ship's position is 15 days out of date.

Length 216 m; draft 10.8 m.

Type: Ship (hazmat cat D). MMSI: 215106000.

Date/timePositionNaut miles runAvg speedWind from/ knotsBaromVisibWave heightAir tempDewpointWater temp
2017-Nov-05 21:55N 32°53' E 034°57'613.0
2017-Nov-05 21:25N 32°54' E 034°50'511.4
2017-Nov-05 21:01N 32°55' E 034°44'814.0
2017-Nov-05 20:27N 32°56' E 034°35'  
2017-Nov-02 04:47N 37°47' E 015°53'813.8
2017-Nov-02 04:12N 37°51' E 015°44'614.1
2017-Nov-02 03:47N 37°54' E 015°38'514.0
2017-Nov-02 03:25N 37°59' E 015°34'613.4
2017-Nov-02 02:58N 38°05' E 015°35'611.3
2017-Nov-02 02:28N 38°10' E 015°35'812.1
2017-Nov-02 01:46N 38°17' E 015°41'413.6
2017-Nov-02 01:30N 38°20' E 015°44'714.2
2017-Nov-02 00:59N 38°25' E 015°50'4 0.2
2017-Nov-01 01:59N 38°28' E 015°55'0 0.0
2017-Oct-31 19:41N 38°28' E 015°55'0 0.0
2017-Oct-31 19:29N 38°28' E 015°55'0 0.0
2017-Oct-31 18:59N 38°28' E 015°55'0 0.0
2017-Oct-31 18:23N 38°28' E 015°55'0 0.0
2017-Oct-31 17:09N 38°28' E 015°55'9 1.5
2017-Oct-31 11:04N 38°33' E 015°45'0 1.1
2017-Oct-31 10:59N 38°33' E 015°45'1 1.1
2017-Oct-31 10:30N 38°33' E 015°46'2 2.0
2017-Oct-31 09:24N 38°31' E 015°44'6 9.2
2017-Oct-31 08:46N 38°29' E 015°37'0 0.9
2017-Oct-31 08:26N 38°29' E 015°37'0 0.8
2017-Oct-31 07:57N 38°29' E 015°38'0 0.6
2017-Oct-31 07:24N 38°30' E 015°38'0 0.6
2017-Oct-31 06:59N 38°30' E 015°38'0 0.5
2017-Oct-31 06:30N 38°30' E 015°38'0 0.7
2017-Oct-31 06:00N 38°30' E 015°39'0 0.8
2017-Oct-31 05:30N 38°30' E 015°39'0 0.7
2017-Oct-31 05:00N 38°30' E 015°40'0 0.8
2017-Oct-31 04:30N 38°30' E 015°40'1 0.8
2017-Oct-31 03:53N 38°31' E 015°41'0 0.9
2017-Oct-31 03:22N 38°31' E 015°41'1 0.8
2017-Oct-31 02:32N 38°31' E 015°42'2 1.2
2017-Oct-31 01:14N 38°30' E 015°43'311.4
2017-Oct-31 00:56N 38°27' E 015°43'714.3
2017-Oct-31 00:28N 38°20' E 015°44'713.6
2017-Oct-30 23:56N 38°14' E 015°38'614.8
2017-Oct-30 23:30N 38°08' E 015°36'814.9
2017-Oct-30 22:57N 37°60' E 015°36'812.6
2017-Oct-30 22:19N 37°54' E 015°42'515.2
2017-Oct-30 21:59N 37°51' E 015°48'715.4
2017-Oct-30 21:30N 37°49' E 015°57'36912.2
2017-Oct-29 15:21N 37°31' E 023°42'514.6
2017-Oct-29 15:00N 37°36' E 023°42'714.0
2017-Oct-29 14:30N 37°42' E 023°40'714.4
2017-Oct-29 14:00N 37°49' E 023°37'612.7
2017-Oct-29 13:30N 37°55' E 023°37'2 3.6
2017-Oct-29 13:00N 37°57' E 023°36'0 0.0
2017-Oct-29 12:30N 37°57' E 023°36'0 0.0
2017-Oct-29 12:00N 37°57' E 023°36'0 0.0
2017-Oct-29 11:30N 37°57' E 023°36'0 0.0
2017-Oct-29 11:00N 37°57' E 023°36'0 0.0
2017-Oct-29 10:30N 37°57' E 023°36'0 0.0
2017-Oct-29 10:00N 37°57' E 023°36'0 0.0
2017-Oct-29 09:27N 37°57' E 023°36'0 0.0
2017-Oct-29 09:00N 37°57' E 023°36'0 0.0
2017-Oct-29 08:30N 37°57' E 023°36'0 0.0
2017-Oct-29 08:00N 37°57' E 023°36'0 0.0
2017-Oct-29 07:30N 37°57' E 023°36'0 0.0
2017-Oct-29 07:00N 37°57' E 023°36'0 0.0
2017-Oct-29 06:27N 37°57' E 023°36'0 0.4
2017-Oct-29 06:01N 37°57' E 023°36'2 4.1
2017-Oct-29 05:31N 37°55' E 023°36'1 1.9
2017-Oct-29 05:01N 37°54' E 023°36'1 2.5
2017-Oct-29 04:31N 37°53' E 023°36'1 2.2
2017-Oct-29 04:01N 37°52' E 023°35'34711.1
2017-Oct-27 20:52N 36°07' E 030°29'513.9
2017-Oct-27 20:30N 36°12' E 030°32'714.1
2017-Oct-27 20:00N 36°18' E 030°34'714.1
2017-Oct-27 19:30N 36°25' E 030°37'714.4
2017-Oct-27 19:00N 36°32' E 030°38'714.1
2017-Oct-27 18:30N 36°39' E 030°39'713.9
2017-Oct-27 18:00N 36°46' E 030°39'4 8.4
2017-Oct-27 17:30N 36°50' E 030°37'0 0.3
2017-Oct-27 16:58N 36°50' E 030°37'0 0.0
2017-Oct-27 16:28N 36°50' E 030°37'0 0.0
2017-Oct-27 15:58N 36°50' E 030°37'0 0.0
2017-Oct-27 15:28N 36°50' E 030°37'0 0.0
2017-Oct-27 14:58N 36°50' E 030°37'0 0.0
2017-Oct-27 14:28N 36°50' E 030°37'0 0.0
2017-Oct-27 13:58N 36°50' E 030°37'0 0.0
2017-Oct-27 13:28N 36°50' E 030°37'0 0.0
2017-Oct-27 12:58N 36°50' E 030°37'0 0.0
2017-Oct-27 12:28N 36°50' E 030°37'0 0.0
2017-Oct-27 11:58N 36°50' E 030°37'0 0.0
2017-Oct-27 11:25N 36°50' E 030°37'0 0.0
2017-Oct-27 10:58N 36°50' E 030°37'0 0.0
2017-Oct-27 10:28N 36°50' E 030°37'0 0.0
2017-Oct-27 09:58N 36°50' E 030°37'0 0.0
2017-Oct-27 09:28N 36°50' E 030°37'0 0.0
2017-Oct-27 08:58N 36°50' E 030°37'0 0.0
2017-Oct-27 08:28N 36°50' E 030°37'0 0.0
2017-Oct-27 07:58N 36°50' E 030°37'0 0.0
2017-Oct-27 07:28N 36°50' E 030°37'0 0.0
2017-Oct-27 06:58N 36°50' E 030°37'0 0.0
2017-Oct-27 06:28N 36°50' E 030°37'0 0.0
2017-Oct-27 05:58N 36°50' E 030°37'0 0.0
2017-Oct-27 05:28N 36°50' E 030°37'0 0.0
2017-Oct-27 04:58N 36°50' E 030°37'0 0.0
2017-Oct-27 04:25N 36°50' E 030°37'0 0.0
2017-Oct-27 03:58N 36°50' E 030°37'0 0.0
2017-Oct-27 03:28N 36°50' E 030°37'0 0.0
2017-Oct-27 02:58N 36°50' E 030°37'0 0.0
2017-Oct-27 02:28N 36°50' E 030°37'0 0.0
2017-Oct-27 01:52N 36°50' E 030°37'0 0.0
2017-Oct-27 01:28N 36°50' E 030°37'0 0.0
2017-Oct-27 00:58N 36°50' E 030°37'0 0.0
2017-Oct-27 00:25N 36°50' E 030°37'0 0.0
2017-Oct-26 23:58N 36°50' E 030°37'0 0.0
2017-Oct-26 23:28N 36°50' E 030°37'0 0.0
2017-Oct-26 22:58N 36°50' E 030°37'0 0.0
2017-Oct-26 22:28N 36°50' E 030°37'0 0.0
2017-Oct-26 21:58N 36°50' E 030°37'  
Track history (hours):
 
Tides and Currents Weather Stations Pressure Air Temp Water Temp Dewpoint Dewpoint Depression Visibility Wind Speed Wind Dir Waves Ship Positions

MSC Caitlin

Last reported at 2017-Nov-05 21:55 UTC. Time now 2017-Nov-21 10:18 UTC.
Position N 32°53' E 034°57'.
Warning: this ship's position is 15 days out of date.

Length 216 m; draft 10.8 m.

Type: Ship (hazmat cat D). MMSI: 215106000.

Date/timePositionNaut miles runAvg speedWind from/ knotsBaromVisibWave heightAir tempDewpointWater temp
2017-Nov-05 21:55N 32°53' E 034°57'613.0
2017-Nov-05 21:25N 32°54' E 034°50'511.4
2017-Nov-05 21:01N 32°55' E 034°44'814.0
2017-Nov-05 20:27N 32°56' E 034°35'  
2017-Nov-02 04:47N 37°47' E 015°53'813.8
2017-Nov-02 04:12N 37°51' E 015°44'614.1
2017-Nov-02 03:47N 37°54' E 015°38'514.0
2017-Nov-02 03:25N 37°59' E 015°34'613.4
2017-Nov-02 02:58N 38°05' E 015°35'611.3
2017-Nov-02 02:28N 38°10' E 015°35'812.1
2017-Nov-02 01:46N 38°17' E 015°41'413.6
2017-Nov-02 01:30N 38°20' E 015°44'714.2
2017-Nov-02 00:59N 38°25' E 015°50'4 0.2
2017-Nov-01 01:59N 38°28' E 015°55'0 0.0
2017-Oct-31 19:41N 38°28' E 015°55'0 0.0
2017-Oct-31 19:29N 38°28' E 015°55'0 0.0
2017-Oct-31 18:59N 38°28' E 015°55'0 0.0
2017-Oct-31 18:23N 38°28' E 015°55'0 0.0
2017-Oct-31 17:09N 38°28' E 015°55'9 1.5
2017-Oct-31 11:04N 38°33' E 015°45'0 1.1
2017-Oct-31 10:59N 38°33' E 015°45'1 1.1
2017-Oct-31 10:30N 38°33' E 015°46'2 2.0
2017-Oct-31 09:24N 38°31' E 015°44'6 9.2
2017-Oct-31 08:46N 38°29' E 015°37'0 0.9
2017-Oct-31 08:26N 38°29' E 015°37'0 0.8
2017-Oct-31 07:57N 38°29' E 015°38'0 0.6
2017-Oct-31 07:24N 38°30' E 015°38'0 0.6
2017-Oct-31 06:59N 38°30' E 015°38'0 0.5
2017-Oct-31 06:30N 38°30' E 015°38'0 0.7
2017-Oct-31 06:00N 38°30' E 015°39'0 0.8
2017-Oct-31 05:30N 38°30' E 015°39'0 0.7
2017-Oct-31 05:00N 38°30' E 015°40'0 0.8
2017-Oct-31 04:30N 38°30' E 015°40'1 0.8
2017-Oct-31 03:53N 38°31' E 015°41'0 0.9
2017-Oct-31 03:22N 38°31' E 015°41'1 0.8
2017-Oct-31 02:32N 38°31' E 015°42'2 1.2
2017-Oct-31 01:14N 38°30' E 015°43'311.4
2017-Oct-31 00:56N 38°27' E 015°43'714.3
2017-Oct-31 00:28N 38°20' E 015°44'713.6
2017-Oct-30 23:56N 38°14' E 015°38'614.8
2017-Oct-30 23:30N 38°08' E 015°36'814.9
2017-Oct-30 22:57N 37°60' E 015°36'812.6
2017-Oct-30 22:19N 37°54' E 015°42'515.2
2017-Oct-30 21:59N 37°51' E 015°48'715.4
2017-Oct-30 21:30N 37°49' E 015°57'36912.2
2017-Oct-29 15:21N 37°31' E 023°42'514.6
2017-Oct-29 15:00N 37°36' E 023°42'714.0
2017-Oct-29 14:30N 37°42' E 023°40'714.4
2017-Oct-29 14:00N 37°49' E 023°37'612.7
2017-Oct-29 13:30N 37°55' E 023°37'2 3.6
2017-Oct-29 13:00N 37°57' E 023°36'0 0.0
2017-Oct-29 12:30N 37°57' E 023°36'0 0.0
2017-Oct-29 12:00N 37°57' E 023°36'0 0.0
2017-Oct-29 11:30N 37°57' E 023°36'0 0.0
2017-Oct-29 11:00N 37°57' E 023°36'0 0.0
2017-Oct-29 10:30N 37°57' E 023°36'0 0.0
2017-Oct-29 10:00N 37°57' E 023°36'0 0.0
2017-Oct-29 09:27N 37°57' E 023°36'0 0.0
2017-Oct-29 09:00N 37°57' E 023°36'0 0.0
2017-Oct-29 08:30N 37°57' E 023°36'0 0.0
2017-Oct-29 08:00N 37°57' E 023°36'0 0.0
2017-Oct-29 07:30N 37°57' E 023°36'0 0.0
2017-Oct-29 07:00N 37°57' E 023°36'0 0.0
2017-Oct-29 06:27N 37°57' E 023°36'0 0.4
2017-Oct-29 06:01N 37°57' E 023°36'2 4.1
2017-Oct-29 05:31N 37°55' E 023°36'1 1.9
2017-Oct-29 05:01N 37°54' E 023°36'1 2.5
2017-Oct-29 04:31N 37°53' E 023°36'1 2.2
2017-Oct-29 04:01N 37°52' E 023°35'34711.1
2017-Oct-27 20:52N 36°07' E 030°29'513.9
2017-Oct-27 20:30N 36°12' E 030°32'714.1
2017-Oct-27 20:00N 36°18' E 030°34'714.1
2017-Oct-27 19:30N 36°25' E 030°37'714.4
2017-Oct-27 19:00N 36°32' E 030°38'714.1
2017-Oct-27 18:30N 36°39' E 030°39'713.9
2017-Oct-27 18:00N 36°46' E 030°39'4 8.4
2017-Oct-27 17:30N 36°50' E 030°37'0 0.3
2017-Oct-27 16:58N 36°50' E 030°37'0 0.0
2017-Oct-27 16:28N 36°50' E 030°37'0 0.0
2017-Oct-27 15:58N 36°50' E 030°37'0 0.0
2017-Oct-27 15:28N 36°50' E 030°37'0 0.0
2017-Oct-27 14:58N 36°50' E 030°37'0 0.0
2017-Oct-27 14:28N 36°50' E 030°37'0 0.0
2017-Oct-27 13:58N 36°50' E 030°37'0 0.0
2017-Oct-27 13:28N 36°50' E 030°37'0 0.0
2017-Oct-27 12:58N 36°50' E 030°37'0 0.0
2017-Oct-27 12:28N 36°50' E 030°37'0 0.0
2017-Oct-27 11:58N 36°50' E 030°37'0 0.0
2017-Oct-27 11:25N 36°50' E 030°37'0 0.0
2017-Oct-27 10:58N 36°50' E 030°37'0 0.0
2017-Oct-27 10:28N 36°50' E 030°37'0 0.0
2017-Oct-27 09:58N 36°50' E 030°37'0 0.0
2017-Oct-27 09:28N 36°50' E 030°37'0 0.0
2017-Oct-27 08:58N 36°50' E 030°37'0 0.0
2017-Oct-27 08:28N 36°50' E 030°37'0 0.0
2017-Oct-27 07:58N 36°50' E 030°37'0 0.0
2017-Oct-27 07:28N 36°50' E 030°37'0 0.0
2017-Oct-27 06:58N 36°50' E 030°37'0 0.0
2017-Oct-27 06:28N 36°50' E 030°37'0 0.0
2017-Oct-27 05:58N 36°50' E 030°37'0 0.0
2017-Oct-27 05:28N 36°50' E 030°37'0 0.0
2017-Oct-27 04:58N 36°50' E 030°37'0 0.0
2017-Oct-27 04:25N 36°50' E 030°37'0 0.0
2017-Oct-27 03:58N 36°50' E 030°37'0 0.0
2017-Oct-27 03:28N 36°50' E 030°37'0 0.0
2017-Oct-27 02:58N 36°50' E 030°37'0 0.0
2017-Oct-27 02:28N 36°50' E 030°37'0 0.0
2017-Oct-27 01:52N 36°50' E 030°37'0 0.0
2017-Oct-27 01:28N 36°50' E 030°37'0 0.0
2017-Oct-27 00:58N 36°50' E 030°37'0 0.0
2017-Oct-27 00:25N 36°50' E 030°37'0 0.0
2017-Oct-26 23:58N 36°50' E 030°37'0 0.0
2017-Oct-26 23:28N 36°50' E 030°37'0 0.0
2017-Oct-26 22:58N 36°50' E 030°37'0 0.0
2017-Oct-26 22:28N 36°50' E 030°37'0 0.0
2017-Oct-26 21:58N 36°50' E 030°37'  

Dump ship's entire track history